Time;durP1;ratioP1;P1;durP2;ratioP2;P2;SDS_P1;SDS_P2;PMS_P1;PMS_P2;Temp;Humidity;BMP_temperature;BMP_pressure;BME280_temperature;BME280_humidity;BME280_pressure;Samples;Min_cycle;Max_cycle;Signal;HPM_P1;HPM_P2
2024/03/09 00:02:16;;;;;;;72.97;31.00;;;;;;;;;;5056611;28;20086;-55
2024/03/09 00:04:43;;;;;;;123.47;47.37;;;;;;;;;;5066035;28;20266;-52
2024/03/09 00:07:09;;;;;;;;;;;;;;;;;;5060544;28;20029;-52
2024/03/09 00:09:36;;;;;;;112.77;42.63;;;;;;;;;;5063394;28;19932;-55
2024/03/09 00:12:04;;;;;;;62.30;24.08;;;;;;;;;;5061816;28;20093;-55
2024/03/09 00:14:29;;;;;;;148.35;49.45;;;;;;;;;;5057654;28;20037;-52
2024/03/09 00:16:55;;;;;;;59.00;24.77;;;;;;;;;;5051092;28;20072;-54
2024/03/09 00:19:21;;;;;;;84.60;31.87;;;;;;;;;;5064225;28;20273;-55
2024/03/09 00:21:48;;;;;;;66.53;27.38;;;;;;;;;;5045804;28;20030;-52
2024/03/09 00:24:14;;;;;;;59.58;25.58;;;;;;;;;;5057139;28;20093;-54
2024/03/09 00:26:39;;;;;;;84.95;33.50;;;;;;;;;;5056995;28;20005;-54
2024/03/09 00:29:05;;;;;;;85.27;34.00;;;;;;;;;;5061792;28;20064;-52
2024/03/09 00:31:31;;;;;;;84.18;31.77;;;;;;;;;;5059866;28;20053;-52
2024/03/09 00:33:57;;;;;;;61.50;25.40;;;;;;;;;;5058461;28;20092;-52
2024/03/09 00:36:23;;;;;;;63.50;25.80;;;;;;;;;;5056090;28;20036;-53
2024/03/09 00:38:48;;;;;;;77.85;32.25;;;;;;;;;;5059324;28;20258;-52
2024/03/09 00:41:14;;;;;;;78.93;31.63;;;;;;;;;;5060931;28;20053;-53
2024/03/09 00:43:43;;;;;;;56.65;23.17;;;;;;;;;;5061888;28;20028;-55
2024/03/09 00:46:09;;;;;;;87.13;32.00;;;;;;;;;;5058549;28;20051;-54
2024/03/09 00:48:35;;;;;;;66.32;26.20;;;;;;;;;;5056518;28;20055;-53
2024/03/09 00:51:01;;;;;;;66.35;28.83;;;;;;;;;;5056069;28;20029;-54
2024/03/09 00:53:26;;;;;;;59.73;24.63;;;;;;;;;;5060404;28;20046;-54
2024/03/09 00:55:51;;;;;;;48.63;21.80;;;;;;;;;;5055943;28;20032;-54
2024/03/09 00:58:21;;;;;;;53.47;23.57;;;;;;;;;;5058873;28;20093;-54
2024/03/09 01:00:47;;;;;;;67.65;28.67;;;;;;;;;;5048030;28;20052;-55
2024/03/09 01:03:13;;;;;;;57.90;23.67;;;;;;;;;;5055429;28;20092;-54
2024/03/09 01:05:38;;;;;;;65.57;27.67;;;;;;;;;;5062301;28;20037;-54
2024/03/09 01:08:04;;;;;;;60.77;25.20;;;;;;;;;;5056765;28;20040;-52
2024/03/09 01:10:29;;;;;;;56.10;24.27;;;;;;;;;;5056346;28;20032;-52
2024/03/09 01:12:55;;;;;;;66.75;30.52;;;;;;;;;;5055341;28;20044;-54
2024/03/09 01:15:20;;;;;;;63.00;26.30;;;;;;;;;;5057637;28;20097;-55
2024/03/09 01:17:46;;;;;;;59.83;25.27;;;;;;;;;;5057092;28;20034;-51
2024/03/09 01:20:12;;;;;;;59.97;24.83;;;;;;;;;;5059338;28;20116;-54
2024/03/09 01:22:41;;;;;;;61.20;25.08;;;;;;;;;;5047054;28;20064;-55
2024/03/09 01:25:07;;;;;;;62.20;24.75;;;;;;;;;;5057583;28;20029;-57
2024/03/09 01:27:32;;;;;;;62.20;25.77;;;;;;;;;;5055407;28;20034;-53
2024/03/09 01:30:01;;;;;;;54.70;23.30;;;;;;;;;;5060368;28;20263;-53
2024/03/09 01:32:27;;;;;;;55.67;23.13;;;;;;;;;;5056481;28;20029;-50
2024/03/09 01:34:53;;;;;;;53.83;23.75;;;;;;;;;;5067449;28;20068;-49
2024/03/09 01:37:20;;;;;;;60.03;24.90;;;;;;;;;;5065161;28;20029;-51
2024/03/09 01:39:48;;;;;;;57.58;24.35;;;;;;;;;;5056675;28;20037;-49
2024/03/09 01:42:18;;;;;;;57.97;24.38;;;;;;;;;;5054968;28;20037;-51
2024/03/09 01:44:44;;;;;;;55.55;23.55;;;;;;;;;;5071469;28;20029;-52
2024/03/09 01:47:11;;;;;;;59.90;24.90;;;;;;;;;;5054944;28;20025;-49
2024/03/09 01:49:37;;;;;;;;;;;;;;;;;;5064012;28;20081;-55
2024/03/09 01:52:03;;;;;;;55.40;21.95;;;;;;;;;;5054932;28;19917;-52
2024/03/09 01:54:28;;;;;;;58.85;24.90;;;;;;;;;;5058466;28;20029;-53
2024/03/09 01:56:56;;;;;;;58.67;23.47;;;;;;;;;;5054703;28;20068;-54
2024/03/09 01:59:21;;;;;;;57.60;23.90;;;;;;;;;;5060960;28;20037;-50
2024/03/09 02:01:47;;;;;;;63.28;26.65;;;;;;;;;;5054715;28;20043;-53
2024/03/09 02:04:13;;;;;;;61.47;24.80;;;;;;;;;;5055503;28;20030;-53
2024/03/09 02:06:40;;;;;;;56.43;21.47;;;;;;;;;;5059075;28;20029;-51
2024/03/09 02:09:07;;;;;;;;;;;;;;;;;;5060110;28;20292;-53
2024/03/09 02:11:36;;;;;;;62.30;23.83;;;;;;;;;;5054822;28;19916;-49
2024/03/09 02:14:05;;;;;;;65.85;24.13;;;;;;;;;;5054349;28;20080;-52
2024/03/09 02:16:31;;;;;;;57.05;25.23;;;;;;;;;;5054893;28;20055;-55
2024/03/09 02:18:58;;;;;;;60.78;25.10;;;;;;;;;;5055725;28;20049;-52
2024/03/09 02:21:24;;;;;;;63.13;25.05;;;;;;;;;;5054609;28;20057;-56
2024/03/09 02:23:51;;;;;;;63.20;25.57;;;;;;;;;;5056309;28;20044;-54
2024/03/09 02:26:16;;;;;;;61.30;25.08;;;;;;;;;;5061849;28;20029;-52
2024/03/09 02:28:55;;;;;;;65.30;25.83;;;;;;;;;;5058099;28;20035;-51
2024/03/09 02:31:25;;;;;;;62.05;24.98;;;;;;;;;;5054679;28;20037;-53
2024/03/09 02:33:52;;;;;;;62.13;24.13;;;;;;;;;;5059678;28;20040;-53
2024/03/09 02:36:22;;;;;;;51.45;24.13;;;;;;;;;;5063770;28;20037;-51
2024/03/09 02:38:48;;;;;;;56.40;23.83;;;;;;;;;;5055489;28;20089;-53
2024/03/09 02:41:14;;;;;;;57.73;25.23;;;;;;;;;;5054649;28;20045;-51
2024/03/09 02:43:39;;;;;;;57.40;24.33;;;;;;;;;;5053904;28;20278;-53
2024/03/09 02:46:04;;;;;;;61.57;25.43;;;;;;;;;;5054528;28;20052;-52
2024/03/09 02:48:31;;;;;;;67.15;26.33;;;;;;;;;;5054472;28;20032;-55
2024/03/09 02:50:57;;;;;;;61.40;25.50;;;;;;;;;;5056157;28;20033;-52
2024/03/09 02:53:23;;;;;;;59.97;24.67;;;;;;;;;;5055059;28;20035;-52
2024/03/09 02:55:48;;;;;;;55.85;24.77;;;;;;;;;;5059283;28;20053;-52
2024/03/09 02:58:14;;;;;;;59.33;25.53;;;;;;;;;;5058112;28;20041;-53
2024/03/09 03:00:39;;;;;;;52.93;23.80;;;;;;;;;;5066486;28;20044;-49
2024/03/09 03:05:50;;;;;;;59.90;24.98;;;;;;;;;;5057797;28;20096;-53
2024/03/09 03:08:18;;;;;;;56.35;24.73;;;;;;;;;;5049409;28;20025;-50
2024/03/09 03:10:43;;;;;;;59.87;26.30;;;;;;;;;;5063763;28;20030;-50
2024/03/09 03:13:09;;;;;;;59.30;24.70;;;;;;;;;;5057999;28;20037;-53
2024/03/09 03:15:35;;;;;;;57.57;25.23;;;;;;;;;;5058985;28;20041;-54
2024/03/09 03:18:00;;;;;;;58.53;24.27;;;;;;;;;;5057839;28;20037;-52
2024/03/09 03:20:30;;;;;;;58.50;23.70;;;;;;;;;;5062973;28;20037;-51
2024/03/09 03:22:59;;;;;;;56.33;24.30;;;;;;;;;;5045116;28;20045;-55
2024/03/09 03:25:24;;;;;;;57.05;25.25;;;;;;;;;;5056460;28;20029;-52
2024/03/09 03:27:50;;;;;;;43.53;18.73;;;;;;;;;;5045107;28;20091;-51
2024/03/09 03:30:15;;;;;;;58.47;24.37;;;;;;;;;;5060758;28;20033;-51
2024/03/09 03:32:40;;;;;;;52.90;22.90;;;;;;;;;;5057700;28;20022;-54
2024/03/09 03:35:07;;;;;;;61.83;25.03;;;;;;;;;;5059577;28;20049;-53
2024/03/09 03:37:33;;;;;;;58.93;26.13;;;;;;;;;;5057648;28;20089;-51
2024/03/09 03:39:59;;;;;;;;;;;;;;;;;;5061930;28;20037;-50
2024/03/09 03:42:26;;;;;;;53.97;23.33;;;;;;;;;;5057452;28;19920;-54
2024/03/09 03:44:51;;;;;;;61.25;24.33;;;;;;;;;;5057031;28;20105;-50
2024/03/09 03:47:17;;;;;;;55.93;23.67;;;;;;;;;;5057504;28;20033;-52
2024/03/09 03:49:42;;;;;;;62.00;24.20;;;;;;;;;;5063551;28;20263;-53
2024/03/09 03:52:08;;;;;;;53.83;22.87;;;;;;;;;;5057436;28;20129;-50
2024/03/09 03:54:35;;;;;;;56.23;25.17;;;;;;;;;;5057191;28;20069;-55
2024/03/09 03:57:00;;;;;;;61.35;24.38;;;;;;;;;;5057560;28;20290;-52
2024/03/09 03:59:26;;;;;;;56.97;23.08;;;;;;;;;;5061061;28;20034;-52
2024/03/09 04:01:52;;;;;;;56.67;22.33;;;;;;;;;;5057244;28;20076;-51
2024/03/09 04:04:17;;;;;;;53.90;22.13;;;;;;;;;;5059569;28;20021;-53
2024/03/09 04:06:44;;;;;;;51.40;21.93;;;;;;;;;;5056471;28;20258;-50
2024/03/09 04:09:09;;;;;;;52.70;22.83;;;;;;;;;;5056401;28;20147;-52
2024/03/09 04:11:34;;;;;;;42.10;17.53;;;;;;;;;;5056951;28;20042;-53
2024/03/09 04:14:00;;;;;;;50.67;22.30;;;;;;;;;;5057102;28;20049;-54
2024/03/09 04:16:25;;;;;;;52.30;23.90;;;;;;;;;;5056305;28;20033;-51
2024/03/09 04:18:51;;;;;;;56.28;23.50;;;;;;;;;;5061209;28;20051;-48
2024/03/09 04:21:18;;;;;;;53.00;23.90;;;;;;;;;;5057035;28;20045;-52
2024/03/09 04:23:43;;;;;;;52.35;21.08;;;;;;;;;;5056547;28;20307;-48
2024/03/09 04:26:11;;;;;;;54.72;23.60;;;;;;;;;;5056141;28;20036;-47
2024/03/09 04:28:37;;;;;;;53.33;22.55;;;;;;;;;;5058480;28;20033;-54
2024/03/09 04:31:02;;;;;;;52.70;23.25;;;;;;;;;;5056563;28;20037;-54
2024/03/09 04:33:28;;;;;;;53.47;22.60;;;;;;;;;;5056304;28;20048;-49
2024/03/09 04:35:53;;;;;;;55.10;23.55;;;;;;;;;;5058324;28;20057;-49
2024/03/09 04:38:19;;;;;;;55.80;22.87;;;;;;;;;;5056337;28;20039;-48
2024/03/09 04:40:46;;;;;;;51.13;21.48;;;;;;;;;;5061651;28;20048;-54
2024/03/09 04:43:13;;;;;;;54.85;23.77;;;;;;;;;;5045914;28;20041;-52
2024/03/09 04:45:39;;;;;;;54.03;23.33;;;;;;;;;;5060142;28;20057;-54
2024/03/09 04:48:05;;;;;;;51.80;21.75;;;;;;;;;;5056451;28;20064;-52
2024/03/09 04:50:33;;;;;;;51.93;23.90;;;;;;;;;;5057102;28;20025;-53
2024/03/09 04:52:58;;;;;;;53.92;23.85;;;;;;;;;;5055834;28;20041;-55
2024/03/09 04:55:30;;;;;;;53.07;21.63;;;;;;;;;;5055784;28;20037;-49
2024/03/09 04:57:56;;;;;;;56.15;22.52;;;;;;;;;;5055881;28;20270;-52
2024/03/09 05:00:24;;;;;;;61.67;23.55;;;;;;;;;;5055594;28;20047;-53
2024/03/09 05:02:50;;;;;;;50.50;21.63;;;;;;;;;;5055693;28;20041;-51
2024/03/09 05:05:19;;;;;;;52.47;21.88;;;;;;;;;;5056907;28;20029;-54
2024/03/09 05:07:48;;;;;;;52.17;22.83;;;;;;;;;;5056522;28;20033;-51
2024/03/09 05:10:17;;;;;;;53.92;23.15;;;;;;;;;;5065411;28;20026;-52
2024/03/09 05:13:00;;;;;;;50.35;20.83;;;;;;;;;;5055996;28;20063;-52
2024/03/09 05:15:30;;;;;;;53.40;23.83;;;;;;;;;;5058681;28;20033;-53
2024/03/09 05:17:58;;;;;;;56.60;23.20;;;;;;;;;;5055022;28;20033;-51
2024/03/09 05:20:25;;;;;;;54.15;21.58;;;;;;;;;;5063257;28;20040;-56
2024/03/09 05:22:54;;;;;;;57.08;21.23;;;;;;;;;;5055267;28;20034;-51
2024/03/09 05:25:21;;;;;;;52.47;22.42;;;;;;;;;;5055308;28;20104;-50
2024/03/09 05:27:47;;;;;;;57.78;23.13;;;;;;;;;;5067583;28;20025;-52
2024/03/09 05:30:18;;;;;;;51.60;24.00;;;;;;;;;;5055682;28;20025;-52
2024/03/09 05:32:50;;;;;;;58.13;23.65;;;;;;;;;;5054984;28;20084;-52
2024/03/09 05:35:16;;;;;;;57.85;21.85;;;;;;;;;;5054900;28;20045;-50
2024/03/09 05:37:41;;;;;;;55.92;22.95;;;;;;;;;;5054927;28;20056;-53
2024/03/09 05:40:10;;;;;;;47.80;21.50;;;;;;;;;;5066412;28;20040;-53
2024/03/09 05:42:36;;;;;;;45.50;20.83;;;;;;;;;;5055227;28;20282;-52
2024/03/09 05:45:03;;;;;;;50.35;21.48;;;;;;;;;;5058214;28;20063;-52
2024/03/09 05:47:29;;;;;;;51.42;21.45;;;;;;;;;;5055131;28;20036;-48
2024/03/09 05:49:55;;;;;;;50.70;21.45;;;;;;;;;;5063753;28;20033;-51
2024/03/09 05:52:20;;;;;;;50.43;20.53;;;;;;;;;;5054895;28;20041;-54
2024/03/09 05:54:48;;;;;;;50.13;21.60;;;;;;;;;;5054672;28;20040;-55
2024/03/09 05:57:15;;;;;;;50.88;21.08;;;;;;;;;;5054731;28;20038;-51
2024/03/09 05:59:41;;;;;;;54.83;22.33;;;;;;;;;;5054683;28;20029;-50
2024/03/09 06:02:07;;;;;;;45.83;21.33;;;;;;;;;;5060803;28;20041;-52
2024/03/09 06:04:34;;;;;;;48.83;21.50;;;;;;;;;;5049106;28;20259;-49
2024/03/09 06:06:59;;;;;;;52.95;21.65;;;;;;;;;;5055777;28;20033;-54
2024/03/09 06:09:24;;;;;;;45.47;18.43;;;;;;;;;;5058192;28;20029;-55
2024/03/09 06:11:49;;;;;;;46.50;19.93;;;;;;;;;;5056289;28;20025;-50
2024/03/09 06:14:18;;;;;;;51.63;22.03;;;;;;;;;;5054382;28;20039;-51
2024/03/09 06:16:43;;;;;;;49.10;21.63;;;;;;;;;;5054261;28;20047;-50
2024/03/09 06:19:09;;;;;;;45.87;18.43;;;;;;;;;;5055552;28;20041;-51
2024/03/09 06:21:34;;;;;;;45.50;20.70;;;;;;;;;;5053688;28;20274;-54
2024/03/09 06:24:00;;;;;;;53.17;22.73;;;;;;;;;;5054556;28;20032;-52
2024/03/09 06:26:26;;;;;;;48.00;21.13;;;;;;;;;;5054268;28;20535;-53
2024/03/09 06:28:52;;;;;;;53.95;21.15;;;;;;;;;;5046426;28;20026;-50
2024/03/09 06:31:17;;;;;;;53.73;22.03;;;;;;;;;;5045173;28;20037;-55
2024/03/09 06:33:43;;;;;;;49.53;22.15;;;;;;;;;;5054362;28;20041;-51
2024/03/09 06:36:12;;;;;;;48.30;21.40;;;;;;;;;;5059844;28;20037;-52
2024/03/09 06:38:40;;;;;;;50.67;22.13;;;;;;;;;;5056396;28;20033;-54
2024/03/09 06:41:06;;;;;;;47.08;20.98;;;;;;;;;;5041418;28;20100;-52
2024/03/09 06:43:31;;;;;;;49.90;21.67;;;;;;;;;;5054505;28;20025;-51
2024/03/09 06:45:59;;;;;;;44.13;21.43;;;;;;;;;;5055921;28;20040;-53
2024/03/09 06:48:24;;;;;;;50.97;21.02;;;;;;;;;;5052914;28;20265;-54
2024/03/09 06:50:49;;;;;;;49.00;20.23;;;;;;;;;;5060667;28;20069;-52
2024/03/09 06:53:15;;;;;;;48.17;20.75;;;;;;;;;;5052750;28;20041;-53
2024/03/09 06:55:41;;;;;;;53.07;22.00;;;;;;;;;;5062311;28;20072;-50
2024/03/09 06:58:06;;;;;;;47.90;21.63;;;;;;;;;;5056636;28;20263;-55
2024/03/09 07:00:34;;;;;;;47.37;21.53;;;;;;;;;;5058610;28;20033;-56
2024/03/09 07:02:59;;;;;;;50.67;21.77;;;;;;;;;;5051484;28;20282;-54
2024/03/09 07:05:30;;;;;;;43.30;19.92;;;;;;;;;;5054212;28;20044;-51
2024/03/09 07:07:56;;;;;;;48.25;21.20;;;;;;;;;;5056763;28;20037;-55
2024/03/09 07:10:22;;;;;;;49.22;21.75;;;;;;;;;;5052824;28;20026;-55
2024/03/09 07:12:48;;;;;;;46.67;20.60;;;;;;;;;;5058072;28;20037;-53
2024/03/09 07:15:17;;;;;;;47.80;20.30;;;;;;;;;;5054243;28;20269;-54
2024/03/09 07:17:44;;;;;;;43.55;19.42;;;;;;;;;;5042220;28;20032;-55
2024/03/09 07:20:13;;;;;;;38.42;18.48;;;;;;;;;;5041509;28;20034;-57
2024/03/09 07:22:48;;;;;;;47.15;19.17;;;;;;;;;;5051374;28;20030;-54
2024/03/09 07:25:14;;;;;;;48.45;21.08;;;;;;;;;;5047800;28;20033;-56
2024/03/09 07:27:41;;;;;;;45.15;19.00;;;;;;;;;;5046815;28;20026;-54
2024/03/09 07:30:10;;;;;;;47.20;20.75;;;;;;;;;;5061813;28;20123;-54
2024/03/09 07:32:37;;;;;;;45.53;18.70;;;;;;;;;;5057302;28;20064;-56
2024/03/09 07:35:14;;;;;;;45.00;19.33;;;;;;;;;;5042789;28;20082;-57
2024/03/09 07:37:42;;;;;;;46.97;19.80;;;;;;;;;;5050111;28;20040;-56
2024/03/09 07:40:07;;;;;;;42.65;19.45;;;;;;;;;;5051934;28;20033;-56
2024/03/09 07:42:35;;;;;;;48.22;19.23;;;;;;;;;;5056421;28;20034;-55
2024/03/09 07:45:01;;;;;;;44.30;20.08;;;;;;;;;;5053885;28;20108;-56
2024/03/09 07:47:26;;;;;;;49.17;20.58;;;;;;;;;;5056792;28;20037;-55
2024/03/09 07:49:52;;;;;;;41.30;19.03;;;;;;;;;;5063949;28;20041;-58
2024/03/09 07:52:18;;;;;;;47.25;20.05;;;;;;;;;;5057638;28;20033;-55
2024/03/09 07:54:43;;;;;;;50.10;21.00;;;;;;;;;;5056969;28;20033;-55
2024/03/09 07:57:11;;;;;;;46.53;20.43;;;;;;;;;;5047828;28;20093;-55
2024/03/09 07:59:38;;;;;;;43.33;19.45;;;;;;;;;;5057961;28;20303;-56
2024/03/09 08:02:03;;;;;;;41.63;19.65;;;;;;;;;;5057329;28;20044;-56
2024/03/09 08:04:28;;;;;;;42.03;17.47;;;;;;;;;;5056949;28;20091;-55
2024/03/09 08:06:54;;;;;;;42.75;18.90;;;;;;;;;;5054122;28;20033;-55
2024/03/09 08:09:20;;;;;;;38.00;17.87;;;;;;;;;;5057370;28;20052;-53
2024/03/09 08:11:49;;;;;;;37.70;18.35;;;;;;;;;;5056730;28;20041;-57
2024/03/09 08:14:14;;;;;;;38.50;19.05;;;;;;;;;;5056780;28;20029;-56
2024/03/09 08:16:39;;;;;;;39.67;19.17;;;;;;;;;;5060553;28;20032;-57
2024/03/09 08:19:05;;;;;;;38.17;18.90;;;;;;;;;;5061530;28;20033;-57
2024/03/09 08:21:32;;;;;;;41.97;18.48;;;;;;;;;;5047474;28;20026;-59
2024/03/09 08:23:57;;;;;;;;;;;;;;;;;;5056943;28;20045;-55
2024/03/09 08:26:24;;;;;;;37.57;18.20;;;;;;;;;;5053460;28;19993;-56
2024/03/09 08:28:50;;;;;;;46.17;19.63;;;;;;;;;;5057861;28;20026;-56
2024/03/09 08:31:15;;;;;;;38.07;16.90;;;;;;;;;;5057230;28;20110;-54
2024/03/09 08:33:41;;;;;;;41.25;18.73;;;;;;;;;;5056367;28;20037;-55
2024/03/09 08:36:10;;;;;;;38.63;17.33;;;;;;;;;;5051597;28;20105;-58
2024/03/09 08:38:39;;;;;;;35.67;17.77;;;;;;;;;;5049333;28;20067;-53
2024/03/09 08:41:05;;;;;;;37.22;17.90;;;;;;;;;;5047896;28;20065;-57
2024/03/09 08:43:31;;;;;;;36.10;17.20;;;;;;;;;;5047055;28;20029;-59
2024/03/09 08:45:56;;;;;;;35.55;16.48;;;;;;;;;;5052182;28;20078;-58
2024/03/09 08:48:22;;;;;;;33.90;15.67;;;;;;;;;;5055335;28;20037;-57
2024/03/09 08:50:47;;;;;;;39.85;17.10;;;;;;;;;;5063081;28;20449;-56
2024/03/09 08:53:17;;;;;;;36.25;17.63;;;;;;;;;;5057127;28;20038;-56
2024/03/09 08:55:44;;;;;;;37.37;17.17;;;;;;;;;;5049070;28;20097;-57
2024/03/09 08:58:10;;;;;;;35.43;16.33;;;;;;;;;;5052259;28;20258;-58
2024/03/09 09:00:37;;;;;;;29.92;14.85;;;;;;;;;;5059751;28;20281;-59
2024/03/09 09:03:05;;;;;;;34.70;15.63;;;;;;;;;;5057501;28;20056;-58
2024/03/09 09:05:30;;;;;;;28.27;14.20;;;;;;;;;;5055874;28;20270;-57
2024/03/09 09:07:58;;;;;;;31.97;15.70;;;;;;;;;;5055887;28;20267;-56
2024/03/09 09:10:25;;;;;;;30.37;15.07;;;;;;;;;;5055274;28;20044;-54
2024/03/09 09:12:51;;;;;;;28.60;14.50;;;;;;;;;;5055513;28;20293;-56
2024/03/09 09:15:16;;;;;;;31.58;14.13;;;;;;;;;;5055358;28;20262;-55
2024/03/09 09:17:42;;;;;;;37.70;15.77;;;;;;;;;;5056002;28;20087;-55
2024/03/09 09:20:11;;;;;;;26.92;13.48;;;;;;;;;;5060783;28;20025;-57
2024/03/09 09:22:37;;;;;;;27.63;14.23;;;;;;;;;;5055127;28;20051;-58
2024/03/09 09:25:03;;;;;;;26.48;13.40;;;;;;;;;;5055294;28;20274;-58
2024/03/09 09:27:29;;;;;;;27.55;14.13;;;;;;;;;;5055143;28;20037;-56
2024/03/09 09:29:54;;;;;;;;;;;;;;;;;;5060934;28;20055;-56
2024/03/09 09:32:23;;;;;;;25.23;13.37;;;;;;;;;;5056820;28;19912;-55
2024/03/09 09:34:49;;;;;;;31.07;14.43;;;;;;;;;;5054666;28;20093;-55
2024/03/09 09:37:15;;;;;;;;;;;;;;;;;;5054483;28;20044;-58
2024/03/09 09:39:42;;;;;;;23.80;12.80;;;;;;;;;;5054489;28;19909;-56
2024/03/09 09:42:09;;;;;;;32.53;17.23;;;;;;;;;;5054766;28;20025;-57
2024/03/09 09:44:35;;;;;;;25.87;13.17;;;;;;;;;;5056630;28;20022;-59
2024/03/09 09:47:00;;;;;;;26.77;13.88;;;;;;;;;;5058784;28;20093;-57
2024/03/09 09:49:26;;;;;;;25.92;13.32;;;;;;;;;;5064475;28;20042;-55
2024/03/09 09:51:52;;;;;;;26.23;12.88;;;;;;;;;;5054663;28;20093;-56
2024/03/09 09:54:22;;;;;;;23.25;12.55;;;;;;;;;;5054552;28;20033;-55
2024/03/09 09:56:47;;;;;;;26.77;13.40;;;;;;;;;;5055875;28;20089;-59
2024/03/09 09:59:13;;;;;;;20.40;12.65;;;;;;;;;;5048432;28;20021;-56
2024/03/09 10:01:38;;;;;;;24.77;12.63;;;;;;;;;;5053887;28;20026;-58
2024/03/09 10:04:04;;;;;;;25.27;12.40;;;;;;;;;;5054009;28;20041;-59
2024/03/09 10:06:29;;;;;;;22.98;12.75;;;;;;;;;;5047496;28;20025;-57
2024/03/09 10:08:55;;;;;;;23.13;12.32;;;;;;;;;;5054157;28;20025;-57
2024/03/09 10:11:22;;;;;;;20.58;12.00;;;;;;;;;;5060084;28;20056;-53
2024/03/09 10:13:49;;;;;;;22.63;13.00;;;;;;;;;;5054131;28;20029;-58
2024/03/09 10:16:16;;;;;;;24.67;13.93;;;;;;;;;;5054221;28;20033;-56
2024/03/09 10:18:47;;;;;;;24.23;12.83;;;;;;;;;;5054206;28;20021;-57
2024/03/09 10:21:14;;;;;;;22.50;13.03;;;;;;;;;;5057208;28;20029;-58
2024/03/09 10:23:39;;;;;;;24.50;13.60;;;;;;;;;;5054490;28;20049;-55
2024/03/09 10:26:10;;;;;;;23.13;13.30;;;;;;;;;;5049888;28;20087;-57
2024/03/09 10:28:37;;;;;;;21.77;12.57;;;;;;;;;;5055127;28;20036;-56
2024/03/09 10:31:03;;;;;;;21.77;12.97;;;;;;;;;;5053233;28;20056;-60
2024/03/09 10:33:34;;;;;;;22.43;13.50;;;;;;;;;;5048494;28;20029;-56
2024/03/09 10:35:59;;;;;;;24.93;13.77;;;;;;;;;;5053116;28;20039;-57
2024/03/09 10:38:27;;;;;;;27.25;14.75;;;;;;;;;;5054102;28;20041;-58
2024/03/09 10:40:56;;;;;;;25.13;15.07;;;;;;;;;;5054130;28;20042;-58
2024/03/09 10:43:23;;;;;;;24.57;13.17;;;;;;;;;;5048005;28;20064;-57
2024/03/09 10:45:50;;;;;;;25.10;14.97;;;;;;;;;;5059325;28;20021;-57
2024/03/09 10:48:16;;;;;;;28.23;16.80;;;;;;;;;;5051264;28;20039;-59
2024/03/09 10:51:00;;;;;;;24.15;15.55;;;;;;;;;;5050679;28;20088;-58
2024/03/09 10:53:36;;;;;;;30.03;15.93;;;;;;;;;;5053737;28;20049;-57
2024/03/09 10:56:04;;;;;;;25.85;15.23;;;;;;;;;;5053923;28;20025;-56
2024/03/09 10:58:31;;;;;;;30.07;14.53;;;;;;;;;;5053742;28;20030;-56
2024/03/09 11:00:57;;;;;;;33.77;17.50;;;;;;;;;;5051549;28;20026;-55
2024/03/09 11:03:23;;;;;;;29.38;15.82;;;;;;;;;;5053400;28;20033;-56
2024/03/09 11:05:55;;;;;;;35.35;16.52;;;;;;;;;;5052054;28;20037;-58
2024/03/09 11:08:21;;;;;;;30.30;16.73;;;;;;;;;;5052658;28;20029;-56
2024/03/09 11:10:46;;;;;;;30.80;16.33;;;;;;;;;;5053518;28;20026;-55
2024/03/09 11:13:13;;;;;;;27.63;14.15;;;;;;;;;;5053258;28;20044;-55
2024/03/09 11:15:39;;;;;;;;;;;;;;;;;;5055983;28;20049;-57
2024/03/09 11:18:07;;;;;;;28.60;15.73;;;;;;;;;;5053619;28;19893;-57
2024/03/09 11:20:33;;;;;;;33.00;15.83;;;;;;;;;;5051682;28;20033;-55
2024/03/09 11:22:58;;;;;;;30.33;16.58;;;;;;;;;;5056869;28;20045;-56
2024/03/09 11:25:34;;;;;;;33.28;17.00;;;;;;;;;;5061221;28;20092;-57
2024/03/09 11:27:59;;;;;;;32.47;16.13;;;;;;;;;;5057401;28;20085;-57
2024/03/09 11:30:26;;;;;;;31.77;16.40;;;;;;;;;;5059556;28;20056;-57
2024/03/09 11:32:51;;;;;;;32.75;17.42;;;;;;;;;;5057163;28;20060;-54
2024/03/09 11:35:26;;;;;;;33.53;15.60;;;;;;;;;;5053908;28;20090;-54
2024/03/09 11:37:51;;;;;;;26.43;14.57;;;;;;;;;;5050328;28;20025;-55
2024/03/09 11:40:18;;;;;;;25.85;13.30;;;;;;;;;;5060309;28;20029;-56
2024/03/09 11:42:43;;;;;;;24.17;13.23;;;;;;;;;;5056228;28;20048;-56
2024/03/09 11:45:09;;;;;;;;;;;;;;;;;;5056958;28;20068;-57
2024/03/09 11:47:35;;;;;;;23.10;12.20;;;;;;;;;;5052098;28;19909;-57
2024/03/09 11:50:01;;;;;;;21.15;11.18;;;;;;;;;;5059868;28;20025;-57
2024/03/09 11:52:30;;;;;;;21.67;10.90;;;;;;;;;;5056995;28;20071;-57
2024/03/09 11:54:58;;;;;;;21.00;10.33;;;;;;;;;;5057232;28;20091;-57
2024/03/09 11:57:29;;;;;;;21.30;11.50;;;;;;;;;;5057111;28;20057;-58
2024/03/09 11:59:56;;;;;;;21.67;10.90;;;;;;;;;;5058870;28;20048;-58
2024/03/09 12:02:23;;;;;;;17.57;10.77;;;;;;;;;;5057913;28;20093;-58
2024/03/09 12:04:48;;;;;;;25.93;14.43;;;;;;;;;;5056879;28;20029;-59
2024/03/09 12:07:15;;;;;;;27.65;15.07;;;;;;;;;;5056884;28;20092;-58
2024/03/09 12:09:44;;;;;;;28.33;14.77;;;;;;;;;;5063508;28;20017;-57
2024/03/09 12:12:11;;;;;;;29.63;15.50;;;;;;;;;;5060640;28;20030;-59
2024/03/09 12:14:37;;;;;;;28.97;14.90;;;;;;;;;;5056539;28;20036;-59
2024/03/09 12:17:03;;;;;;;26.73;13.20;;;;;;;;;;5056857;28;20021;-59
2024/03/09 12:19:29;;;;;;;22.87;13.57;;;;;;;;;;5056997;28;20033;-58
2024/03/09 12:21:56;;;;;;;24.77;14.43;;;;;;;;;;5074253;28;20037;-58
2024/03/09 12:24:22;;;;;;;;;;;;;;;;;;5057094;28;20056;-57
2024/03/09 12:26:47;;;;;;;25.30;14.17;;;;;;;;;;5055312;28;19909;-58
2024/03/09 12:29:13;;;;;;;;;;;;;;;;;;5056005;28;20089;-57
2024/03/09 12:31:42;;;;;;;24.77;12.90;;;;;;;;;;5061472;28;19909;-59
2024/03/09 12:34:08;;;;;;;24.10;13.63;;;;;;;;;;5056376;28;20042;-58
2024/03/09 12:36:34;;;;;;;23.80;13.73;;;;;;;;;;5056644;28;20049;-56
2024/03/09 12:38:59;;;;;;;;;;;;;;;;;;5056808;28;20038;-59
2024/03/09 12:41:31;;;;;;;24.57;13.57;;;;;;;;;;5061362;28;20419;-58
2024/03/09 12:44:04;;;;;;;22.50;14.00;;;;;;;;;;5055012;28;20041;-57
2024/03/09 12:46:30;;;;;;;25.97;15.00;;;;;;;;;;5056122;28;20032;-58
2024/03/09 12:48:57;;;;;;;25.67;15.40;;;;;;;;;;5056238;28;20085;-57
2024/03/09 12:51:23;;;;;;;24.63;13.67;;;;;;;;;;5056814;28;20022;-56
2024/03/09 12:54:00;;;;;;;31.77;14.90;;;;;;;;;;5055546;28;20040;-56
2024/03/09 12:56:30;;;;;;;27.47;14.87;;;;;;;;;;5055781;28;20123;-57
2024/03/09 12:59:02;;;;;;;30.87;17.50;;;;;;;;;;5056218;28;20064;-57
2024/03/09 13:01:31;;;;;;;25.27;14.93;;;;;;;;;;5055583;28;20022;-56
2024/03/09 13:04:07;;;;;;;28.37;15.80;;;;;;;;;;5055469;28;20038;-56
2024/03/09 13:06:37;;;;;;;26.95;15.65;;;;;;;;;;5055678;28;20030;-57
2024/03/09 13:09:03;;;;;;;30.60;15.93;;;;;;;;;;5055466;28;20025;-57
2024/03/09 13:11:28;;;;;;;26.02;14.23;;;;;;;;;;5059455;28;20089;-58
2024/03/09 13:13:54;;;;;;;31.33;15.20;;;;;;;;;;5055149;28;20050;-57
2024/03/09 13:16:20;;;;;;;;;;;;;;;;;;5055839;28;20077;-57
2024/03/09 13:18:55;;;;;;;28.83;15.00;;;;;;;;;;5055222;28;19920;-58
2024/03/09 13:21:21;;;;;;;23.87;13.37;;;;;;;;;;5059294;28;20057;-57
2024/03/09 13:23:48;;;;;;;35.15;16.17;;;;;;;;;;5055058;28;20052;-58
2024/03/09 13:26:13;;;;;;;27.57;17.30;;;;;;;;;;5054754;28;20052;-58
2024/03/09 13:28:40;;;;;;;22.58;12.57;;;;;;;;;;5054835;28;20032;-57
2024/03/09 13:31:06;;;;;;;25.05;14.05;;;;;;;;;;5059706;28;20056;-57
2024/03/09 13:33:41;;;;;;;23.57;14.73;;;;;;;;;;5055180;28;20035;-60
2024/03/09 13:36:11;;;;;;;28.90;15.20;;;;;;;;;;5055146;28;20029;-57
2024/03/09 13:38:41;;;;;;;30.67;14.27;;;;;;;;;;5054558;28;20033;-58
2024/03/09 13:41:09;;;;;;;28.87;14.70;;;;;;;;;;5058805;28;20099;-55
2024/03/09 13:43:34;;;;;;;26.13;14.83;;;;;;;;;;5055370;28;20166;-57
2024/03/09 13:46:04;;;;;;;27.45;15.60;;;;;;;;;;5055024;28;20026;-53
2024/03/09 13:48:31;;;;;;;23.27;12.67;;;;;;;;;;5055072;28;20036;-57
2024/03/09 13:50:57;;;;;;;33.57;15.73;;;;;;;;;;5058722;28;20039;-56
2024/03/09 13:53:22;;;;;;;26.55;15.27;;;;;;;;;;5063415;28;20038;-56
2024/03/09 13:55:47;;;;;;;25.35;14.15;;;;;;;;;;5054969;28;20044;-55
2024/03/09 13:58:18;;;;;;;24.45;13.98;;;;;;;;;;5054595;28;20032;-56
2024/03/09 14:00:44;;;;;;;27.40;15.03;;;;;;;;;;5055038;28;20018;-56
2024/03/09 14:03:10;;;;;;;26.75;15.57;;;;;;;;;;5058345;28;20056;-55
2024/03/09 14:05:36;;;;;;;;;;;;;;;;;;5055837;28;20044;-56
2024/03/09 14:08:02;;;;;;;23.47;12.53;;;;;;;;;;5056489;28;19913;-58
2024/03/09 14:10:38;;;;;;;29.80;14.90;;;;;;;;;;5061561;28;20028;-54
2024/03/09 14:13:08;;;;;;;30.00;15.50;;;;;;;;;;5057770;28;20041;-56
2024/03/09 14:15:36;;;;;;;31.23;14.33;;;;;;;;;;5061121;28;20029;-56
2024/03/09 14:18:02;;;;;;;26.97;14.80;;;;;;;;;;5054438;28;20472;-59
2024/03/09 14:20:28;;;;;;;30.17;16.63;;;;;;;;;;5060303;28;20025;-58
2024/03/09 14:22:53;;;;;;;29.17;15.75;;;;;;;;;;5062095;28;20053;-55